sensor_id;sensor_type;location;lat;lon;timestamp;temperature;humidity
70947;DHT22;58605;48.700;8.760;2023-05-07T00:01:02;11.20;99.90
70947;DHT22;58605;48.700;8.760;2023-05-07T00:03:28;11.20;99.90
70947;DHT22;58605;48.700;8.760;2023-05-07T00:05:54;11.10;99.90
70947;DHT22;58605;48.700;8.760;2023-05-07T00:08:21;11.10;99.90
70947;DHT22;58605;48.700;8.760;2023-05-07T00:11:08;11.00;99.90
70947;DHT22;58605;48.700;8.760;2023-05-07T00:13:36;11.10;99.90
70947;DHT22;58605;48.700;8.760;2023-05-07T00:16:02;11.10;99.90
70947;DHT22;58605;48.700;8.760;2023-05-07T00:18:28;11.00;99.90
70947;DHT22;58605;48.700;8.760;2023-05-07T00:20:55;11.10;99.90
70947;DHT22;58605;48.700;8.760;2023-05-07T00:23:22;11.00;99.90
70947;DHT22;58605;48.700;8.760;2023-05-07T00:25:48;11.00;99.90
70947;DHT22;58605;48.700;8.760;2023-05-07T00:28:14;11.00;99.90
70947;DHT22;58605;48.700;8.760;2023-05-07T00:30:42;11.00;99.90
70947;DHT22;58605;48.700;8.760;2023-05-07T00:33:08;10.80;99.90
70947;DHT22;58605;48.700;8.760;2023-05-07T00:35:34;10.90;99.90
70947;DHT22;58605;48.700;8.760;2023-05-07T00:38:01;11.00;99.90
70947;DHT22;58605;48.700;8.760;2023-05-07T00:40:27;10.90;99.90
70947;DHT22;58605;48.700;8.760;2023-05-07T00:42:53;10.90;99.90
70947;DHT22;58605;48.700;8.760;2023-05-07T00:45:24;10.90;99.90
70947;DHT22;58605;48.700;8.760;2023-05-07T00:47:54;10.80;99.90
70947;DHT22;58605;48.700;8.760;2023-05-07T00:50:21;10.80;99.90
70947;DHT22;58605;48.700;8.760;2023-05-07T00:52:48;10.80;99.90
70947;DHT22;58605;48.700;8.760;2023-05-07T00:55:14;10.90;99.90
70947;DHT22;58605;48.700;8.760;2023-05-07T00:57:41;10.90;99.90
70947;DHT22;58605;48.700;8.760;2023-05-07T01:00:12;10.90;99.90
70947;DHT22;58605;48.700;8.760;2023-05-07T01:02:44;10.80;99.90
70947;DHT22;58605;48.700;8.760;2023-05-07T01:05:15;10.60;99.90
70947;DHT22;58605;48.700;8.760;2023-05-07T01:07:42;10.60;99.90
70947;DHT22;58605;48.700;8.760;2023-05-07T01:10:10;10.60;99.90
70947;DHT22;58605;48.700;8.760;2023-05-07T01:12:37;10.60;99.90
70947;DHT22;58605;48.700;8.760;2023-05-07T01:15:04;10.70;99.90
70947;DHT22;58605;48.700;8.760;2023-05-07T01:17:33;10.60;99.90
70947;DHT22;58605;48.700;8.760;2023-05-07T01:20:00;10.60;99.90
70947;DHT22;58605;48.700;8.760;2023-05-07T01:22:32;10.70;99.90
70947;DHT22;58605;48.700;8.760;2023-05-07T01:24:59;10.80;99.90
70947;DHT22;58605;48.700;8.760;2023-05-07T01:27:27;10.90;99.90
70947;DHT22;58605;48.700;8.760;2023-05-07T01:29:53;10.90;99.90
70947;DHT22;58605;48.700;8.760;2023-05-07T01:32:23;10.90;99.90
70947;DHT22;58605;48.700;8.760;2023-05-07T01:34:50;11.10;99.90
70947;DHT22;58605;48.700;8.760;2023-05-07T01:37:17;11.00;99.90
70947;DHT22;58605;48.700;8.760;2023-05-07T01:39:45;10.80;99.90
70947;DHT22;58605;48.700;8.760;2023-05-07T01:42:12;10.60;99.90
70947;DHT22;58605;48.700;8.760;2023-05-07T01:44:38;10.60;99.90
70947;DHT22;58605;48.700;8.760;2023-05-07T01:47:04;10.60;99.90
70947;DHT22;58605;48.700;8.760;2023-05-07T01:49:31;10.60;99.90
70947;DHT22;58605;48.700;8.760;2023-05-07T01:51:58;10.60;99.90
70947;DHT22;58605;48.700;8.760;2023-05-07T01:54:25;10.60;99.90
70947;DHT22;58605;48.700;8.760;2023-05-07T01:56:55;10.50;99.90
70947;DHT22;58605;48.700;8.760;2023-05-07T01:59:21;10.50;99.90
70947;DHT22;58605;48.700;8.760;2023-05-07T02:01:47;10.50;99.90
70947;DHT22;58605;48.700;8.760;2023-05-07T02:04:13;10.40;99.90
70947;DHT22;58605;48.700;8.760;2023-05-07T02:06:39;10.40;99.90
70947;DHT22;58605;48.700;8.760;2023-05-07T02:09:05;10.40;99.90
70947;DHT22;58605;48.700;8.760;2023-05-07T02:11:31;10.40;99.90
70947;DHT22;58605;48.700;8.760;2023-05-07T02:14:12;10.50;99.90
70947;DHT22;58605;48.700;8.760;2023-05-07T02:16:38;10.30;99.90
70947;DHT22;58605;48.700;8.760;2023-05-07T02:19:04;10.20;99.90
70947;DHT22;58605;48.700;8.760;2023-05-07T02:21:30;10.20;99.90
70947;DHT22;58605;48.700;8.760;2023-05-07T02:23:56;10.20;99.90
70947;DHT22;58605;48.700;8.760;2023-05-07T02:26:22;10.20;99.90
70947;DHT22;58605;48.700;8.760;2023-05-07T02:28:48;10.10;99.90
70947;DHT22;58605;48.700;8.760;2023-05-07T02:31:16;10.10;99.90
70947;DHT22;58605;48.700;8.760;2023-05-07T02:33:48;10.00;99.90
70947;DHT22;58605;48.700;8.760;2023-05-07T02:36:14;10.10;99.90
70947;DHT22;58605;48.700;8.760;2023-05-07T02:38:40;9.90;99.90
70947;DHT22;58605;48.700;8.760;2023-05-07T02:41:06;9.80;99.90
70947;DHT22;58605;48.700;8.760;2023-05-07T02:43:32;9.70;99.90
70947;DHT22;58605;48.700;8.760;2023-05-07T02:46:02;9.80;99.90
70947;DHT22;58605;48.700;8.760;2023-05-07T02:48:30;9.90;99.90
70947;DHT22;58605;48.700;8.760;2023-05-07T02:50:56;9.80;99.90
70947;DHT22;58605;48.700;8.760;2023-05-07T02:53:22;9.80;99.90
70947;DHT22;58605;48.700;8.760;2023-05-07T02:55:48;9.70;99.90
70947;DHT22;58605;48.700;8.760;2023-05-07T02:58:14;9.70;99.90
70947;DHT22;58605;48.700;8.760;2023-05-07T03:00:40;9.70;99.90
70947;DHT22;58605;48.700;8.760;2023-05-07T03:03:06;9.70;99.90
70947;DHT22;58605;48.700;8.760;2023-05-07T03:05:33;9.60;99.90
70947;DHT22;58605;48.700;8.760;2023-05-07T03:07:59;9.50;99.90
70947;DHT22;58605;48.700;8.760;2023-05-07T03:10:27;9.70;99.90
70947;DHT22;58605;48.700;8.760;2023-05-07T03:12:52;9.80;99.90
70947;DHT22;58605;48.700;8.760;2023-05-07T03:15:19;9.90;99.90
70947;DHT22;58605;48.700;8.760;2023-05-07T03:17:45;9.80;99.90
70947;DHT22;58605;48.700;8.760;2023-05-07T03:20:11;9.70;99.90
70947;DHT22;58605;48.700;8.760;2023-05-07T03:22:38;9.50;99.90
70947;DHT22;58605;48.700;8.760;2023-05-07T03:25:06;9.50;99.90
70947;DHT22;58605;48.700;8.760;2023-05-07T03:27:32;9.40;99.90
70947;DHT22;58605;48.700;8.760;2023-05-07T03:29:58;9.40;99.90
70947;DHT22;58605;48.700;8.760;2023-05-07T03:32:24;9.40;99.90
70947;DHT22;58605;48.700;8.760;2023-05-07T03:34:50;9.30;99.90
70947;DHT22;58605;48.700;8.760;2023-05-07T03:37:16;9.30;99.90
70947;DHT22;58605;48.700;8.760;2023-05-07T03:39:44;9.30;99.90
70947;DHT22;58605;48.700;8.760;2023-05-07T03:42:10;9.30;99.90
70947;DHT22;58605;48.700;8.760;2023-05-07T03:44:36;9.20;99.90
70947;DHT22;58605;48.700;8.760;2023-05-07T03:47:02;9.20;99.90
70947;DHT22;58605;48.700;8.760;2023-05-07T03:49:28;9.20;99.90
70947;DHT22;58605;48.700;8.760;2023-05-07T03:51:54;9.20;99.90
70947;DHT22;58605;48.700;8.760;2023-05-07T03:54:20;9.20;99.90
70947;DHT22;58605;48.700;8.760;2023-05-07T03:56:47;9.20;99.90
70947;DHT22;58605;48.700;8.760;2023-05-07T03:59:13;9.40;99.90
70947;DHT22;58605;48.700;8.760;2023-05-07T04:01:39;9.30;99.90
70947;DHT22;58605;48.700;8.760;2023-05-07T04:04:05;9.40;99.90
70947;DHT22;58605;48.700;8.760;2023-05-07T04:06:31;9.30;99.90
70947;DHT22;58605;48.700;8.760;2023-05-07T04:08:57;9.40;99.90
70947;DHT22;58605;48.700;8.760;2023-05-07T04:11:23;9.40;99.90
70947;DHT22;58605;48.700;8.760;2023-05-07T04:13:51;9.30;99.90
70947;DHT22;58605;48.700;8.760;2023-05-07T04:16:16;9.40;99.90
70947;DHT22;58605;48.700;8.760;2023-05-07T04:18:42;9.40;99.90
70947;DHT22;58605;48.700;8.760;2023-05-07T04:21:14;9.30;99.90
70947;DHT22;58605;48.700;8.760;2023-05-07T04:23:40;9.20;99.90
70947;DHT22;58605;48.700;8.760;2023-05-07T04:26:06;9.20;99.90
70947;DHT22;58605;48.700;8.760;2023-05-07T04:28:34;9.20;99.90
70947;DHT22;58605;48.700;8.760;2023-05-07T04:31:01;9.20;99.90
70947;DHT22;58605;48.700;8.760;2023-05-07T04:33:27;9.10;99.90
70947;DHT22;58605;48.700;8.760;2023-05-07T04:35:53;9.20;99.90
70947;DHT22;58605;48.700;8.760;2023-05-07T04:38:19;9.10;99.90
70947;DHT22;58605;48.700;8.760;2023-05-07T04:40:45;9.10;99.90
70947;DHT22;58605;48.700;8.760;2023-05-07T04:43:12;9.20;99.90
70947;DHT22;58605;48.700;8.760;2023-05-07T04:45:38;9.20;99.90
70947;DHT22;58605;48.700;8.760;2023-05-07T04:48:09;9.20;99.90
70947;DHT22;58605;48.700;8.760;2023-05-07T04:50:35;9.30;99.90
70947;DHT22;58605;48.700;8.760;2023-05-07T04:53:01;9.20;99.90
70947;DHT22;58605;48.700;8.760;2023-05-07T04:55:28;9.30;99.90
70947;DHT22;58605;48.700;8.760;2023-05-07T04:57:54;9.50;99.90
70947;DHT22;58605;48.700;8.760;2023-05-07T05:00:20;9.60;99.90
70947;DHT22;58605;48.700;8.760;2023-05-07T05:02:46;9.70;99.90
70947;DHT22;58605;48.700;8.760;2023-05-07T05:05:14;9.70;99.90
70947;DHT22;58605;48.700;8.760;2023-05-07T05:07:40;9.70;99.90
70947;DHT22;58605;48.700;8.760;2023-05-07T05:10:06;9.70;99.90
70947;DHT22;58605;48.700;8.760;2023-05-07T05:12:32;9.90;99.90
70947;DHT22;58605;48.700;8.760;2023-05-07T05:14:58;10.20;99.90
70947;DHT22;58605;48.700;8.760;2023-05-07T05:17:24;10.40;99.90
70947;DHT22;58605;48.700;8.760;2023-05-07T05:19:50;10.60;99.90
70947;DHT22;58605;48.700;8.760;2023-05-07T05:22:18;10.70;99.90
70947;DHT22;58605;48.700;8.760;2023-05-07T05:24:43;10.80;99.90
70947;DHT22;58605;48.700;8.760;2023-05-07T05:27:09;10.70;99.90
70947;DHT22;58605;48.700;8.760;2023-05-07T05:29:36;10.60;99.90
70947;DHT22;58605;48.700;8.760;2023-05-07T05:32:02;10.50;99.90
70947;DHT22;58605;48.700;8.760;2023-05-07T05:34:27;10.50;99.90
70947;DHT22;58605;48.700;8.760;2023-05-07T05:36:53;10.60;99.90
70947;DHT22;58605;48.700;8.760;2023-05-07T05:39:21;10.70;99.90
70947;DHT22;58605;48.700;8.760;2023-05-07T05:41:48;10.80;99.90
70947;DHT22;58605;48.700;8.760;2023-05-07T05:44:14;10.90;99.90
70947;DHT22;58605;48.700;8.760;2023-05-07T05:46:40;11.10;99.90
70947;DHT22;58605;48.700;8.760;2023-05-07T05:49:06;11.40;99.90
70947;DHT22;58605;48.700;8.760;2023-05-07T05:51:32;11.70;99.90
70947;DHT22;58605;48.700;8.760;2023-05-07T05:53:58;11.90;99.90
70947;DHT22;58605;48.700;8.760;2023-05-07T05:56:26;12.10;99.90
70947;DHT22;58605;48.700;8.760;2023-05-07T05:58:52;12.10;99.90
70947;DHT22;58605;48.700;8.760;2023-05-07T06:01:18;12.10;99.90
70947;DHT22;58605;48.700;8.760;2023-05-07T06:03:44;12.10;99.90
70947;DHT22;58605;48.700;8.760;2023-05-07T06:06:10;12.30;99.90
70947;DHT22;58605;48.700;8.760;2023-05-07T06:08:36;12.30;99.90
70947;DHT22;58605;48.700;8.760;2023-05-07T06:11:02;12.40;99.90
70947;DHT22;58605;48.700;8.760;2023-05-07T06:13:30;12.50;99.90
70947;DHT22;58605;48.700;8.760;2023-05-07T06:15:56;12.70;99.90
70947;DHT22;58605;48.700;8.760;2023-05-07T06:18:22;12.80;99.90
70947;DHT22;58605;48.700;8.760;2023-05-07T06:20:48;12.90;99.90
70947;DHT22;58605;48.700;8.760;2023-05-07T06:23:14;13.00;99.90
70947;DHT22;58605;48.700;8.760;2023-05-07T06:25:40;13.20;99.90
70947;DHT22;58605;48.700;8.760;2023-05-07T06:28:06;13.20;99.90
70947;DHT22;58605;48.700;8.760;2023-05-07T06:30:35;13.20;99.90
70947;DHT22;58605;48.700;8.760;2023-05-07T06:33:01;13.30;99.90
70947;DHT22;58605;48.700;8.760;2023-05-07T06:35:27;13.40;99.90
70947;DHT22;58605;48.700;8.760;2023-05-07T06:37:53;13.50;99.90
70947;DHT22;58605;48.700;8.760;2023-05-07T06:40:19;13.60;99.90
70947;DHT22;58605;48.700;8.760;2023-05-07T06:42:45;13.70;99.90
70947;DHT22;58605;48.700;8.760;2023-05-07T06:45:11;13.80;99.90
70947;DHT22;58605;48.700;8.760;2023-05-07T06:47:39;13.80;99.90
70947;DHT22;58605;48.700;8.760;2023-05-07T06:50:06;14.00;99.90
70947;DHT22;58605;48.700;8.760;2023-05-07T06:52:32;14.10;99.90
70947;DHT22;58605;48.700;8.760;2023-05-07T06:54:58;14.20;99.90
70947;DHT22;58605;48.700;8.760;2023-05-07T06:57:24;14.30;99.90
70947;DHT22;58605;48.700;8.760;2023-05-07T06:59:50;14.50;99.90
70947;DHT22;58605;48.700;8.760;2023-05-07T07:02:16;14.80;99.90
70947;DHT22;58605;48.700;8.760;2023-05-07T07:04:43;14.90;99.90
70947;DHT22;58605;48.700;8.760;2023-05-07T07:07:10;15.20;99.90
70947;DHT22;58605;48.700;8.760;2023-05-07T07:09:36;15.40;99.90
70947;DHT22;58605;48.700;8.760;2023-05-07T07:12:03;15.50;99.90
70947;DHT22;58605;48.700;8.760;2023-05-07T07:14:29;15.70;99.90
70947;DHT22;58605;48.700;8.760;2023-05-07T07:16:55;15.90;99.90
70947;DHT22;58605;48.700;8.760;2023-05-07T07:19:21;16.10;99.90
70947;DHT22;58605;48.700;8.760;2023-05-07T07:21:48;16.20;99.90
70947;DHT22;58605;48.700;8.760;2023-05-07T07:24:15;16.30;98.20
70947;DHT22;58605;48.700;8.760;2023-05-07T07:26:46;16.40;97.50
70947;DHT22;58605;48.700;8.760;2023-05-07T07:29:12;16.50;97.40
70947;DHT22;58605;48.700;8.760;2023-05-07T07:31:39;16.40;96.70
70947;DHT22;58605;48.700;8.760;2023-05-07T07:34:04;16.40;96.70
70947;DHT22;58605;48.700;8.760;2023-05-07T07:36:30;16.60;97.50
70947;DHT22;58605;48.700;8.760;2023-05-07T07:38:58;16.70;96.50
70947;DHT22;58605;48.700;8.760;2023-05-07T07:41:24;16.60;94.50
70947;DHT22;58605;48.700;8.760;2023-05-07T07:43:50;16.60;93.60
70947;DHT22;58605;48.700;8.760;2023-05-07T07:46:16;16.60;95.00
70947;DHT22;58605;48.700;8.760;2023-05-07T07:48:42;16.70;95.40
70947;DHT22;58605;48.700;8.760;2023-05-07T07:51:08;16.90;95.10
70947;DHT22;58605;48.700;8.760;2023-05-07T07:53:34;17.00;93.20
70947;DHT22;58605;48.700;8.760;2023-05-07T07:56:01;16.80;92.00
70947;DHT22;58605;48.700;8.760;2023-05-07T07:58:27;16.60;91.70
70947;DHT22;58605;48.700;8.760;2023-05-07T08:00:53;16.60;92.20
70947;DHT22;58605;48.700;8.760;2023-05-07T08:03:21;16.40;91.70
70947;DHT22;58605;48.700;8.760;2023-05-07T08:05:48;16.20;92.00
70947;DHT22;58605;48.700;8.760;2023-05-07T08:08:16;16.10;92.70
70947;DHT22;58605;48.700;8.760;2023-05-07T08:10:42;16.00;92.60
70947;DHT22;58605;48.700;8.760;2023-05-07T08:13:10;15.90;92.70
70947;DHT22;58605;48.700;8.760;2023-05-07T08:15:36;15.70;93.00
70947;DHT22;58605;48.700;8.760;2023-05-07T08:18:02;15.80;94.10
70947;DHT22;58605;48.700;8.760;2023-05-07T08:20:28;15.70;93.40
70947;DHT22;58605;48.700;8.760;2023-05-07T08:22:54;15.50;93.50
70947;DHT22;58605;48.700;8.760;2023-05-07T08:25:20;15.40;93.80
70947;DHT22;58605;48.700;8.760;2023-05-07T08:27:46;15.30;94.30
70947;DHT22;58605;48.700;8.760;2023-05-07T08:30:14;15.30;94.30
70947;DHT22;58605;48.700;8.760;2023-05-07T08:32:40;15.40;94.50
70947;DHT22;58605;48.700;8.760;2023-05-07T08:35:07;15.40;94.50
70947;DHT22;58605;48.700;8.760;2023-05-07T08:37:33;15.40;95.10
70947;DHT22;58605;48.700;8.760;2023-05-07T08:39:59;15.30;94.70
70947;DHT22;58605;48.700;8.760;2023-05-07T08:42:27;15.30;96.90
70947;DHT22;58605;48.700;8.760;2023-05-07T08:44:56;15.40;96.60
70947;DHT22;58605;48.700;8.760;2023-05-07T08:47:27;15.40;96.90
70947;DHT22;58605;48.700;8.760;2023-05-07T08:49:55;15.40;95.90
70947;DHT22;58605;48.700;8.760;2023-05-07T08:52:21;15.50;95.60
70947;DHT22;58605;48.700;8.760;2023-05-07T08:54:53;15.50;95.40
70947;DHT22;58605;48.700;8.760;2023-05-07T08:57:25;15.50;95.50
70947;DHT22;58605;48.700;8.760;2023-05-07T08:59:51;15.50;95.30
70947;DHT22;58605;48.700;8.760;2023-05-07T09:02:17;15.50;95.30
70947;DHT22;58605;48.700;8.760;2023-05-07T09:04:45;15.50;95.70
70947;DHT22;58605;48.700;8.760;2023-05-07T09:07:11;15.40;95.50
70947;DHT22;58605;48.700;8.760;2023-05-07T09:09:37;15.40;95.70
70947;DHT22;58605;48.700;8.760;2023-05-07T09:12:03;15.30;95.80
70947;DHT22;58605;48.700;8.760;2023-05-07T09:14:29;15.30;96.10
70947;DHT22;58605;48.700;8.760;2023-05-07T09:16:59;15.20;96.60
70947;DHT22;58605;48.700;8.760;2023-05-07T09:19:25;15.20;97.00
70947;DHT22;58605;48.700;8.760;2023-05-07T09:21:59;15.30;97.50
70947;DHT22;58605;48.700;8.760;2023-05-07T09:24:26;15.30;97.50
70947;DHT22;58605;48.700;8.760;2023-05-07T09:26:52;15.50;98.10
70947;DHT22;58605;48.700;8.760;2023-05-07T09:29:18;15.70;97.90
70947;DHT22;58605;48.700;8.760;2023-05-07T09:31:44;15.70;98.70
70947;DHT22;58605;48.700;8.760;2023-05-07T09:34:10;16.20;99.90
70947;DHT22;58605;48.700;8.760;2023-05-07T09:36:36;16.40;96.50
70947;DHT22;58605;48.700;8.760;2023-05-07T09:39:04;16.00;95.30
70947;DHT22;58605;48.700;8.760;2023-05-07T09:41:30;15.80;95.70
70947;DHT22;58605;48.700;8.760;2023-05-07T09:43:58;15.70;96.10
70947;DHT22;58605;48.700;8.760;2023-05-07T09:46:27;15.80;96.30
70947;DHT22;58605;48.700;8.760;2023-05-07T09:48:57;15.80;96.30
70947;DHT22;58605;48.700;8.760;2023-05-07T09:51:25;15.80;96.10
70947;DHT22;58605;48.700;8.760;2023-05-07T09:53:54;15.80;96.10
70947;DHT22;58605;48.700;8.760;2023-05-07T09:56:23;15.80;96.10
70947;DHT22;58605;48.700;8.760;2023-05-07T09:58:51;15.80;96.20
70947;DHT22;58605;48.700;8.760;2023-05-07T10:01:18;15.80;96.30
70947;DHT22;58605;48.700;8.760;2023-05-07T10:03:50;15.80;96.20
70947;DHT22;58605;48.700;8.760;2023-05-07T10:06:17;15.90;96.90
70947;DHT22;58605;48.700;8.760;2023-05-07T10:08:43;15.80;96.50
70947;DHT22;58605;48.700;8.760;2023-05-07T10:11:09;15.70;97.20
70947;DHT22;58605;48.700;8.760;2023-05-07T10:13:37;15.70;97.40
70947;DHT22;58605;48.700;8.760;2023-05-07T10:16:04;15.70;97.80
70947;DHT22;58605;48.700;8.760;2023-05-07T10:18:31;15.70;98.50
70947;DHT22;58605;48.700;8.760;2023-05-07T10:21:02;15.70;98.60
70947;DHT22;58605;48.700;8.760;2023-05-07T10:23:32;15.80;98.50
70947;DHT22;58605;48.700;8.760;2023-05-07T10:25:58;15.80;98.70
70947;DHT22;58605;48.700;8.760;2023-05-07T10:28:26;15.80;99.20
70947;DHT22;58605;48.700;8.760;2023-05-07T10:31:02;15.90;99.20
70947;DHT22;58605;48.700;8.760;2023-05-07T10:33:32;16.30;99.60
70947;DHT22;58605;48.700;8.760;2023-05-07T10:36:00;16.20;97.80
70947;DHT22;58605;48.700;8.760;2023-05-07T10:38:28;16.10;98.10
70947;DHT22;58605;48.700;8.760;2023-05-07T10:40:55;16.10;98.00
70947;DHT22;58605;48.700;8.760;2023-05-07T10:43:21;16.30;98.10
70947;DHT22;58605;48.700;8.760;2023-05-07T10:46:15;16.20;97.40
70947;DHT22;58605;48.700;8.760;2023-05-07T10:49:10;16.20;97.50
70947;DHT22;58605;48.700;8.760;2023-05-07T10:51:37;16.20;97.40
70947;DHT22;58605;48.700;8.760;2023-05-07T10:54:20;16.10;97.50
70947;DHT22;58605;48.700;8.760;2023-05-07T10:56:47;16.10;97.40
70947;DHT22;58605;48.700;8.760;2023-05-07T10:59:35;16.10;99.00
70947;DHT22;58605;48.700;8.760;2023-05-07T11:02:09;17.50;95.20
70947;DHT22;58605;48.700;8.760;2023-05-07T11:04:37;17.90;93.90
70947;DHT22;58605;48.700;8.760;2023-05-07T11:10:04;18.30;91.10
70947;DHT22;58605;48.700;8.760;2023-05-07T11:12:56;18.30;91.20
70947;DHT22;58605;48.700;8.760;2023-05-07T11:15:40;18.40;91.00
70947;DHT22;58605;48.700;8.760;2023-05-07T11:18:09;18.50;90.10
70947;DHT22;58605;48.700;8.760;2023-05-07T11:20:56;18.40;90.00
70947;DHT22;58605;48.700;8.760;2023-05-07T11:26:45;18.30;91.20
70947;DHT22;58605;48.700;8.760;2023-05-07T11:29:12;18.20;91.60
70947;DHT22;58605;48.700;8.760;2023-05-07T11:31:39;18.20;90.90
70947;DHT22;58605;48.700;8.760;2023-05-07T11:34:06;18.10;90.20
70947;DHT22;58605;48.700;8.760;2023-05-07T11:36:33;17.80;90.50
70947;DHT22;58605;48.700;8.760;2023-05-07T11:38:59;17.50;91.00
70947;DHT22;58605;48.700;8.760;2023-05-07T11:41:33;17.30;91.30
70947;DHT22;58605;48.700;8.760;2023-05-07T11:44:00;17.30;91.40
70947;DHT22;58605;48.700;8.760;2023-05-07T11:46:27;17.20;91.90
70947;DHT22;58605;48.700;8.760;2023-05-07T11:48:54;17.20;91.70
70947;DHT22;58605;48.700;8.760;2023-05-07T11:51:22;17.20;93.20
70947;DHT22;58605;48.700;8.760;2023-05-07T11:53:49;17.00;93.00
70947;DHT22;58605;48.700;8.760;2023-05-07T11:56:17;16.90;94.10
70947;DHT22;58605;48.700;8.760;2023-05-07T11:58:44;17.00;94.80
70947;DHT22;58605;48.700;8.760;2023-05-07T12:01:12;17.00;94.40
70947;DHT22;58605;48.700;8.760;2023-05-07T12:03:40;17.10;94.90
70947;DHT22;58605;48.700;8.760;2023-05-07T12:06:08;17.20;96.30
70947;DHT22;58605;48.700;8.760;2023-05-07T12:08:38;17.40;97.70
70947;DHT22;58605;48.700;8.760;2023-05-07T12:11:07;17.50;97.70
70947;DHT22;58605;48.700;8.760;2023-05-07T12:13:34;17.20;97.20
70947;DHT22;58605;48.700;8.760;2023-05-07T12:16:00;16.80;98.20
70947;DHT22;58605;48.700;8.760;2023-05-07T12:18:29;16.60;99.90
70947;DHT22;58605;48.700;8.760;2023-05-07T12:20:55;16.40;99.90
70947;DHT22;58605;48.700;8.760;2023-05-07T12:23:22;16.30;99.90
70947;DHT22;58605;48.700;8.760;2023-05-07T12:25:49;16.30;99.90
70947;DHT22;58605;48.700;8.760;2023-05-07T12:28:16;16.30;99.90
70947;DHT22;58605;48.700;8.760;2023-05-07T12:30:43;16.40;99.90
70947;DHT22;58605;48.700;8.760;2023-05-07T12:33:10;16.50;99.90
70947;DHT22;58605;48.700;8.760;2023-05-07T12:35:37;16.20;99.90
70947;DHT22;58605;48.700;8.760;2023-05-07T12:38:07;16.00;99.90
70947;DHT22;58605;48.700;8.760;2023-05-07T12:40:38;16.40;99.90
70947;DHT22;58605;48.700;8.760;2023-05-07T12:43:06;16.60;99.90
70947;DHT22;58605;48.700;8.760;2023-05-07T12:45:37;16.70;99.90
70947;DHT22;58605;48.700;8.760;2023-05-07T12:48:04;16.70;99.90
70947;DHT22;58605;48.700;8.760;2023-05-07T12:50:33;16.60;99.90
70947;DHT22;58605;48.700;8.760;2023-05-07T12:53:00;16.60;99.90
70947;DHT22;58605;48.700;8.760;2023-05-07T12:55:26;16.50;99.90
70947;DHT22;58605;48.700;8.760;2023-05-07T12:57:53;16.40;99.90
70947;DHT22;58605;48.700;8.760;2023-05-07T13:00:34;16.60;99.90
70947;DHT22;58605;48.700;8.760;2023-05-07T13:03:00;16.80;99.90
70947;DHT22;58605;48.700;8.760;2023-05-07T13:05:26;16.70;99.90
70947;DHT22;58605;48.700;8.760;2023-05-07T13:07:55;16.50;99.90
70947;DHT22;58605;48.700;8.760;2023-05-07T13:10:22;15.90;99.90
70947;DHT22;58605;48.700;8.760;2023-05-07T13:12:48;15.60;99.90
70947;DHT22;58605;48.700;8.760;2023-05-07T13:15:21;15.50;99.90
70947;DHT22;58605;48.700;8.760;2023-05-07T13:17:49;15.30;99.90
70947;DHT22;58605;48.700;8.760;2023-05-07T13:20:15;15.30;99.90
70947;DHT22;58605;48.700;8.760;2023-05-07T13:22:41;15.20;99.90
70947;DHT22;58605;48.700;8.760;2023-05-07T13:25:08;15.20;99.90
70947;DHT22;58605;48.700;8.760;2023-05-07T13:27:34;15.20;99.90
70947;DHT22;58605;48.700;8.760;2023-05-07T13:30:03;15.10;99.90
70947;DHT22;58605;48.700;8.760;2023-05-07T13:32:30;15.20;99.90
70947;DHT22;58605;48.700;8.760;2023-05-07T13:34:57;15.40;99.90
70947;DHT22;58605;48.700;8.760;2023-05-07T13:37:23;15.60;99.90
70947;DHT22;58605;48.700;8.760;2023-05-07T13:39:49;15.60;99.90
70947;DHT22;58605;48.700;8.760;2023-05-07T13:42:15;15.50;99.90
70947;DHT22;58605;48.700;8.760;2023-05-07T13:44:48;15.40;99.90
70947;DHT22;58605;48.700;8.760;2023-05-07T13:47:14;15.50;99.90
70947;DHT22;58605;48.700;8.760;2023-05-07T13:49:40;15.60;99.90
70947;DHT22;58605;48.700;8.760;2023-05-07T13:52:07;15.70;99.90
70947;DHT22;58605;48.700;8.760;2023-05-07T13:54:33;15.80;99.90
70947;DHT22;58605;48.700;8.760;2023-05-07T13:56:59;16.10;99.90
70947;DHT22;58605;48.700;8.760;2023-05-07T13:59:26;16.20;99.90
70947;DHT22;58605;48.700;8.760;2023-05-07T14:01:52;16.20;99.90
70947;DHT22;58605;48.700;8.760;2023-05-07T14:04:18;16.00;99.90
70947;DHT22;58605;48.700;8.760;2023-05-07T14:06:44;15.80;99.90
70947;DHT22;58605;48.700;8.760;2023-05-07T14:09:11;15.60;99.90
70947;DHT22;58605;48.700;8.760;2023-05-07T14:11:38;15.60;99.90
70947;DHT22;58605;48.700;8.760;2023-05-07T14:14:05;15.60;99.90
70947;DHT22;58605;48.700;8.760;2023-05-07T14:16:31;15.80;99.90
70947;DHT22;58605;48.700;8.760;2023-05-07T14:18:57;15.80;99.90
70947;DHT22;58605;48.700;8.760;2023-05-07T14:21:23;16.00;99.90
70947;DHT22;58605;48.700;8.760;2023-05-07T14:23:49;16.20;99.90
70947;DHT22;58605;48.700;8.760;2023-05-07T14:26:16;16.40;99.90
70947;DHT22;58605;48.700;8.760;2023-05-07T14:28:42;16.50;99.90
70947;DHT22;58605;48.700;8.760;2023-05-07T14:31:11;16.40;99.90
70947;DHT22;58605;48.700;8.760;2023-05-07T14:33:37;16.10;99.90
70947;DHT22;58605;48.700;8.760;2023-05-07T14:36:03;16.00;99.90
70947;DHT22;58605;48.700;8.760;2023-05-07T14:38:30;16.00;99.90
70947;DHT22;58605;48.700;8.760;2023-05-07T14:40:58;16.20;99.90
70947;DHT22;58605;48.700;8.760;2023-05-07T14:43:26;16.30;99.90
70947;DHT22;58605;48.700;8.760;2023-05-07T14:45:52;16.40;99.90
70947;DHT22;58605;48.700;8.760;2023-05-07T14:48:18;16.20;99.90
70947;DHT22;58605;48.700;8.760;2023-05-07T14:50:46;16.30;99.90
70947;DHT22;58605;48.700;8.760;2023-05-07T14:53:12;16.50;99.90
70947;DHT22;58605;48.700;8.760;2023-05-07T14:55:38;16.60;99.90
70947;DHT22;58605;48.700;8.760;2023-05-07T14:58:05;16.60;99.90
70947;DHT22;58605;48.700;8.760;2023-05-07T15:00:33;16.80;99.90
70947;DHT22;58605;48.700;8.760;2023-05-07T15:03:05;16.90;99.90
70947;DHT22;58605;48.700;8.760;2023-05-07T15:05:31;16.90;99.90
70947;DHT22;58605;48.700;8.760;2023-05-07T15:07:57;16.90;99.90
70947;DHT22;58605;48.700;8.760;2023-05-07T15:10:23;17.10;99.90
70947;DHT22;58605;48.700;8.760;2023-05-07T15:12:49;17.10;99.90
70947;DHT22;58605;48.700;8.760;2023-05-07T15:15:15;17.20;99.90
70947;DHT22;58605;48.700;8.760;2023-05-07T15:17:42;17.40;99.90
70947;DHT22;58605;48.700;8.760;2023-05-07T15:20:09;17.50;99.90
70947;DHT22;58605;48.700;8.760;2023-05-07T15:22:35;17.60;99.90
70947;DHT22;58605;48.700;8.760;2023-05-07T15:25:03;17.70;99.90
70947;DHT22;58605;48.700;8.760;2023-05-07T15:27:29;17.80;99.90
70947;DHT22;58605;48.700;8.760;2023-05-07T15:29:56;17.80;99.90
70947;DHT22;58605;48.700;8.760;2023-05-07T15:32:22;17.80;99.90
70947;DHT22;58605;48.700;8.760;2023-05-07T15:34:49;17.70;99.90
70947;DHT22;58605;48.700;8.760;2023-05-07T15:37:15;17.80;99.90
70947;DHT22;58605;48.700;8.760;2023-05-07T15:39:41;17.80;99.90